Time;durP1;ratioP1;P1;durP2;ratioP2;P2;SDS_P1;SDS_P2;PMS_P1;PMS_P2;Temp;Humidity;BMP_temperature;BMP_pressure;BME280_temperature;BME280_humidity;BME280_pressure;Samples;Min_cycle;Max_cycle;Signal;HPM_P1;HPM_P2
2022/04/23 00:01:45;;;;;;;11.63;10.10;;;;;;;13.26;65.69;97826.25;4954709;28;20205;-76
2022/04/23 00:04:13;;;;;;;14.38;10.23;;;;;;;13.21;66.06;97823.16;4954094;28;20185;-77
2022/04/23 00:06:40;;;;;;;12.40;9.77;;;;;;;13.12;66.40;97828.44;4954049;28;20224;-76
2022/04/23 00:09:07;;;;;;;11.43;9.52;;;;;;;13.19;65.78;97822.44;4951199;28;20337;-77
2022/04/23 00:11:34;;;;;;;11.77;10.57;;;;;;;13.21;65.94;97820.44;4935691;29;20189;-77
2022/04/23 00:14:01;;;;;;;11.88;10.68;;;;;;;13.04;66.68;97816.66;4935551;29;20245;-75
2022/04/23 00:16:30;;;;;;;13.13;10.45;;;;;;;13.04;66.74;97820.22;4934644;29;20245;-77
2022/04/23 00:18:58;;;;;;;11.85;10.63;;;;;;;13.00;66.96;97815.25;4935550;29;20189;-76
2022/04/23 00:21:24;;;;;;;12.80;10.93;;;;;;;12.88;67.38;97810.03;4935113;29;20206;-77
2022/04/23 00:23:51;;;;;;;15.15;10.45;;;;;;;12.92;67.34;97822.25;4935392;29;20554;-75
2022/04/23 00:26:18;;;;;;;16.50;11.32;;;;;;;12.86;67.57;97824.69;4935240;29;20536;-77
2022/04/23 00:28:45;;;;;;;12.25;10.75;;;;;;;12.81;68.00;97824.28;4934828;29;20281;-75
2022/04/23 00:31:11;;;;;;;15.50;11.55;;;;;;;12.86;67.77;97830.09;4953317;29;20644;-77
2022/04/23 00:33:39;;;;;;;12.98;11.55;;;;;;;12.96;67.12;97830.91;4954629;28;20200;-76
2022/04/23 00:36:07;;;;;;;22.15;11.95;;;;;;;12.91;67.51;97830.47;4954469;28;20651;-76
2022/04/23 00:38:34;;;;;;;14.23;11.90;;;;;;;12.88;67.79;97834.34;4954182;28;20635;-75
2022/04/23 00:41:00;;;;;;;12.27;10.77;;;;;;;12.94;67.47;97827.50;4941128;28;20240;-77
2022/04/23 00:43:28;;;;;;;14.00;11.70;;;;;;;12.90;67.67;97829.66;4943515;29;20197;-76
2022/04/23 00:45:55;;;;;;;12.70;11.02;;;;;;;12.97;67.33;97819.09;4954303;28;20189;-76
2022/04/23 00:48:24;;;;;;;14.77;11.85;;;;;;;12.87;67.43;97813.75;4953859;28;20282;-77
2022/04/23 00:50:52;;;;;;;13.82;12.43;;;;;;;12.88;67.69;97812.72;4938697;28;20656;-77
2022/04/23 00:53:20;;;;;;;12.73;11.48;;;;;;;12.80;68.24;97811.75;4938929;29;20603;-76
2022/04/23 00:55:48;;;;;;;13.32;11.70;;;;;;;12.78;68.42;97816.47;4953548;28;20197;-75
2022/04/23 00:58:16;;;;;;;14.43;12.93;;;;;;;12.67;68.95;97804.84;4944206;28;20220;-76
2022/04/23 01:00:42;;;;;;;13.10;11.85;;;;;;;12.66;69.27;97800.47;4957797;28;20193;-77
2022/04/23 01:03:10;;;;;;;13.35;12.05;;;;;;;12.70;68.86;97804.53;4957511;28;20185;-77
2022/04/23 01:05:39;;;;;;;14.43;11.60;;;;;;;12.69;69.25;97810.09;4957473;28;20205;-76
2022/04/23 01:08:07;;;;;;;14.75;13.15;;;;;;;12.72;69.01;97799.00;4943378;28;20284;-77
2022/04/23 01:10:35;;;;;;;18.00;12.05;;;;;;;12.54;70.26;97807.00;4938439;29;20735;-77
2022/04/23 01:13:02;;;;;;;16.10;13.00;;;;;;;12.47;70.61;97797.78;4938289;29;20206;-76
2022/04/23 01:15:29;;;;;;;15.93;13.75;;;;;;;12.62;69.90;97803.59;4937721;29;20617;-76
2022/04/23 01:17:56;;;;;;;14.95;12.43;;;;;;;12.48;70.87;97815.66;4950032;29;20600;-76
2022/04/23 01:20:24;;;;;;;15.52;13.57;;;;;;;12.50;70.62;97814.56;4956519;28;20272;-76
2022/04/23 01:22:51;;;;;;;16.92;13.95;;;;;;;12.45;70.92;97819.50;4956924;28;20244;-77
2022/04/23 01:25:17;;;;;;;15.20;13.50;;;;;;;12.53;70.74;97818.81;4941660;28;20614;-76
2022/04/23 01:27:46;;;;;;;16.20;13.48;;;;;;;12.62;70.13;97827.88;4937614;29;20189;-76
2022/04/23 01:30:13;;;;;;;14.38;12.40;;;;;;;12.56;70.32;97823.91;4937148;29;20265;-76
2022/04/23 01:32:40;;;;;;;15.55;13.82;;;;;;;12.42;71.45;97818.97;4937355;29;20227;-76
2022/04/23 01:35:07;;;;;;;15.93;13.75;;;;;;;12.45;71.09;97815.97;4949391;29;20196;-77
2022/04/23 01:37:35;;;;;;;16.25;14.55;;;;;;;12.45;71.36;97816.81;4956087;28;20224;-77
2022/04/23 01:40:02;;;;;;;16.60;14.57;;;;;;;12.33;71.95;97825.22;4956440;28;20544;-77
2022/04/23 01:42:28;;;;;;;30.15;14.95;;;;;;;12.21;72.64;97816.41;4956488;28;20188;-77
2022/04/23 01:44:55;;;;;;;16.42;14.35;;;;;;;12.17;73.24;97826.66;4938992;28;20520;-76
2022/04/23 01:47:22;;;;;;;19.00;14.85;;;;;;;12.31;72.43;97833.47;4936979;29;20209;-75
2022/04/23 01:49:48;;;;;;;17.15;15.00;;;;;;;12.23;73.10;97831.50;4952880;29;20655;-75
2022/04/23 01:52:15;;;;;;;19.05;15.18;;;;;;;12.21;73.38;97827.19;4956284;28;20189;-75
2022/04/23 01:54:43;;;;;;;17.10;15.23;;;;;;;12.23;73.26;97828.78;4940909;28;20201;-76
2022/04/23 01:57:09;;;;;;;19.20;15.10;;;;;;;12.11;73.77;97832.59;4936632;29;20200;-76
2022/04/23 01:59:36;;;;;;;16.63;14.90;;;;;;;12.08;74.30;97822.97;4935396;29;20197;-76
2022/04/23 02:02:03;;;;;;;17.70;14.35;;;;;;;12.17;73.61;97825.81;4937049;29;20649;-75
2022/04/23 02:04:30;;;;;;;18.25;14.70;;;;;;;12.11;74.15;97832.59;4937942;29;20189;-76
2022/04/23 02:06:56;;;;;;;18.30;15.80;;;;;;;12.33;72.77;97828.78;4936301;29;20280;-76
2022/04/23 02:09:23;;;;;;;20.25;15.95;;;;;;;12.27;73.14;97832.88;4936300;29;20248;-76
2022/04/23 02:11:51;;;;;;;21.95;16.77;;;;;;;12.28;73.24;97833.75;4936695;29;20696;-76
2022/04/23 02:14:18;;;;;;;20.48;15.77;;;;;;;12.19;73.71;97837.28;4947303;29;20188;-77
2022/04/23 02:16:45;;;;;;;19.55;16.25;;;;;;;12.06;74.71;97833.03;4955793;28;20258;-77
2022/04/23 02:19:13;;;;;;;18.52;15.40;;;;;;;11.97;75.26;97828.50;4956363;28;20248;-76
2022/04/23 02:21:40;;;;;;;19.00;15.50;;;;;;;11.93;75.68;97834.31;4955838;28;20197;-78
2022/04/23 02:24:08;;;;;;;18.20;16.25;;;;;;;11.78;76.84;97840.09;4955738;28;20565;-76
2022/04/23 02:26:34;;;;;;;18.65;15.95;;;;;;;11.74;77.20;97835.13;4955962;28;20596;-77
2022/04/23 02:29:03;;;;;;;19.73;16.33;;;;;;;11.78;77.08;97836.50;4955570;28;20243;-76
2022/04/23 02:31:29;;;;;;;17.48;15.32;;;;;;;11.83;76.75;97829.72;4956198;28;20643;-77
2022/04/23 02:33:57;;;;;;;22.35;16.23;;;;;;;11.84;76.79;97830.56;4946227;28;20228;-75
2022/04/23 02:36:24;;;;;;;20.35;16.67;;;;;;;11.74;77.36;97830.56;4936419;29;20196;-76
2022/04/23 02:38:51;;;;;;;19.35;17.35;;;;;;;11.58;78.24;97832.97;4944485;29;20279;-75
2022/04/23 02:41:18;;;;;;;23.20;17.23;;;;;;;11.64;78.13;97838.63;4951628;28;20197;-75
2022/04/23 02:43:45;;;;;;;19.23;16.83;;;;;;;11.64;78.63;97837.78;4936663;29;20260;-77
2022/04/23 02:46:15;;;;;;;18.13;16.17;;;;;;;11.55;78.91;97836.75;4936883;29;20699;-74
2022/04/23 02:48:42;;;;;;;20.77;17.33;;;;;;;11.50;79.08;97838.19;4955300;28;20203;-74
2022/04/23 02:51:09;;;;;;;18.58;16.58;;;;;;;11.46;79.60;97838.47;4954441;28;20230;-74
2022/04/23 02:53:35;;;;;;;24.13;17.95;;;;;;;11.47;79.56;97834.75;4954941;28;20321;-76
2022/04/23 02:56:02;;;;;;;20.25;17.70;;;;;;;11.51;79.38;97835.34;4954976;28;20214;-75
2022/04/23 02:58:29;;;;;;;20.35;16.70;;;;;;;11.45;79.92;97833.19;4954732;28;20192;-75
2022/04/23 03:00:56;;;;;;;18.58;16.58;;;;;;;11.52;79.88;97831.66;4954640;28;20199;-75
2022/04/23 03:03:25;;;;;;;23.02;17.42;;;;;;;11.47;80.17;97834.75;4954750;28;20208;-77
2022/04/23 03:05:53;;;;;;;22.70;18.25;;;;;;;11.45;80.00;97828.66;4955054;28;20196;-75
2022/04/23 03:08:20;;;;;;;21.00;17.70;;;;;;;11.53;79.72;97832.50;4950624;28;20644;-75
2022/04/23 03:10:46;;;;;;;21.15;16.55;;;;;;;11.60;79.35;97829.13;4943588;29;20221;-75
2022/04/23 03:13:14;;;;;;;25.55;17.67;;;;;;;11.60;79.04;97836.34;4954880;28;20188;-75
2022/04/23 03:15:44;;;;;;;19.65;17.30;;;;;;;11.55;79.52;97825.13;4954348;28;20691;-75
2022/04/23 03:18:12;;;;;;;20.08;16.65;;;;;;;11.55;79.47;97833.22;4951804;28;20669;-76
2022/04/23 03:20:42;;;;;;;22.15;18.25;;;;;;;11.59;79.19;97827.41;4934801;29;20188;-76
2022/04/23 03:23:09;;;;;;;20.25;17.83;;;;;;;11.54;79.76;97823.44;4939718;29;20197;-75
2022/04/23 03:25:35;;;;;;;21.25;17.95;;;;;;;11.52;79.90;97828.13;4954485;28;20236;-74
2022/04/23 03:28:05;;;;;;;21.70;17.08;;;;;;;11.43;80.32;97829.78;4951830;28;20552;-75
2022/04/23 03:30:32;;;;;;;21.60;19.30;;;;;;;11.47;80.62;97823.97;4941150;29;20299;-74
2022/04/23 03:32:59;;;;;;;22.27;17.88;;;;;;;11.52;80.21;97825.41;4954698;28;20681;-74
2022/04/23 03:35:26;;;;;;;24.92;17.23;;;;;;;11.61;79.40;97825.44;4954666;28;20200;-74
2022/04/23 03:37:55;;;;;;;20.60;17.30;;;;;;;11.54;79.97;97831.53;4952881;28;20200;-77
2022/04/23 03:40:22;;;;;;;23.35;18.83;;;;;;;11.49;80.82;97826.56;4935417;29;20644;-74
2022/04/23 03:42:49;;;;;;;20.92;18.10;;;;;;;11.41;80.77;97818.28;4935232;29;20284;-74
2022/04/23 03:45:18;;;;;;;20.25;17.83;;;;;;;11.26;82.41;97821.38;4935196;29;20201;-75
2022/04/23 03:47:45;;;;;;;29.02;20.40;;;;;;;11.35;81.69;97817.00;4947737;29;20241;-74
2022/04/23 03:50:12;;;;;;;21.20;18.30;;;;;;;11.20;82.97;97818.38;4935772;29;20260;-74
2022/04/23 03:52:39;;;;;;;23.45;20.20;;;;;;;11.27;82.55;97816.84;4935666;29;20201;-77
2022/04/23 03:55:08;;;;;;;23.40;18.90;;;;;;;11.17;83.33;97813.25;4935581;29;20245;-76
2022/04/23 03:57:43;;;;;;;21.98;19.08;;;;;;;11.25;82.65;97819.66;4935124;29;20649;-76
2022/04/23 04:00:11;;;;;;;21.15;18.73;;;;;;;11.21;83.13;97812.00;4953820;29;20189;-75
2022/04/23 04:02:38;;;;;;;25.98;19.60;;;;;;;10.99;85.09;97807.66;4954376;28;20269;-76
2022/04/23 04:05:05;;;;;;;23.45;19.52;;;;;;;10.92;86.01;97810.06;4953883;28;20214;-76
2022/04/23 04:07:32;;;;;;;20.10;17.73;;;;;;;10.89;86.23;97806.78;4953772;28;20275;-75
2022/04/23 04:10:00;;;;;;;23.27;20.02;;;;;;;10.82;87.19;97801.06;4936525;28;20687;-76
2022/04/23 04:12:29;;;;;;;29.38;19.77;;;;;;;10.79;87.46;97795.97;4934824;29;20198;-75
2022/04/23 04:14:56;;;;;;;30.45;20.17;;;;;;;10.83;87.57;97797.38;4952726;29;20252;-75
2022/04/23 04:17:22;;;;;;;22.92;18.73;;;;;;;10.69;88.51;97798.59;4953229;28;20639;-76
2022/04/23 04:19:49;;;;;;;25.02;20.27;;;;;;;10.55;89.86;97805.16;4936001;28;20196;-75
2022/04/23 04:22:16;;;;;;;26.83;19.17;;;;;;;10.72;88.98;97797.47;4934450;29;20209;-75
2022/04/23 04:24:42;;;;;;;24.25;19.95;;;;;;;10.58;89.91;97788.78;4934048;29;20194;-75
2022/04/23 04:27:09;;;;;;;30.50;20.67;;;;;;;10.72;89.10;97794.78;4934456;29;20765;-74
2022/04/23 04:29:37;;;;;;;25.20;19.48;;;;;;;10.64;89.53;97792.75;4949057;29;20193;-74
2022/04/23 04:32:07;;;;;;;28.05;19.52;;;;;;;10.55;90.41;97791.72;4956357;28;20197;-74
2022/04/23 04:34:34;;;;;;;42.10;21.17;;;;;;;10.64;90.40;97793.59;4956833;28;20193;-75
2022/04/23 04:37:03;;;;;;;24.13;19.17;;;;;;;10.52;91.15;97783.91;4956501;28;20421;-76
2022/04/23 04:39:30;;;;;;;27.75;19.70;;;;;;;10.61;90.76;97790.34;4956815;28;20193;-74
2022/04/23 04:41:56;;;;;;;26.17;20.45;;;;;;;10.55;90.93;97786.34;4957312;28;20228;-74
2022/04/23 04:44:23;;;;;;;23.05;18.35;;;;;;;10.35;92.93;97781.81;4957247;28;20242;-76
2022/04/23 04:46:51;;;;;;;25.90;20.60;;;;;;;10.56;91.48;97792.56;4941373;28;20193;-75
2022/04/23 04:49:17;;;;;;;26.55;20.02;;;;;;;10.55;91.60;97789.03;4937635;29;20206;-75
2022/04/23 04:51:44;;;;;;;23.17;19.35;;;;;;;10.55;91.69;97797.09;4937878;29;20663;-75
2022/04/23 04:54:11;;;;;;;26.10;19.90;;;;;;;10.67;90.88;97783.56;4938070;29;20189;-74
2022/04/23 04:56:37;;;;;;;23.20;18.92;;;;;;;10.74;90.74;97790.97;4950886;29;20211;-75
2022/04/23 04:59:05;;;;;;;25.35;20.50;;;;;;;10.67;91.19;97799.72;4956838;28;20591;-75
2022/04/23 05:01:31;;;;;;;23.80;19.40;;;;;;;10.74;90.72;97799.06;4956586;28;20197;-75
2022/04/23 05:04:00;;;;;;;24.02;18.65;;;;;;;10.67;91.34;97799.72;4949910;28;20585;-75
2022/04/23 05:06:26;;;;;;;24.48;18.92;;;;;;;10.66;91.59;97800.72;4952247;29;20317;-75
2022/04/23 05:08:53;;;;;;;26.08;20.60;;;;;;;10.67;92.20;97802.41;4955217;28;20204;-76
2022/04/23 05:11:25;;;;;;;22.25;17.90;;;;;;;10.72;91.74;97809.09;4937596;29;20217;-75
2022/04/23 05:13:51;;;;;;;22.88;19.35;;;;;;;10.72;91.91;97817.19;4936664;29;20197;-74
2022/04/23 05:16:18;;;;;;;25.02;20.40;;;;;;;10.75;91.85;97816.91;4937049;29;20718;-74
2022/04/23 05:18:45;;;;;;;26.13;19.88;;;;;;;10.87;90.96;97809.59;4937657;29;20200;-76
2022/04/23 05:21:13;;;;;;;23.88;19.30;;;;;;;10.84;91.45;97815.25;4939851;29;20197;-76
2022/04/23 05:23:39;;;;;;;23.20;19.35;;;;;;;10.93;91.06;97814.44;4956799;28;20204;-76
2022/04/23 05:26:06;;;;;;;24.92;19.70;;;;;;;10.82;91.49;97817.22;4956469;28;20192;-76
2022/04/23 05:28:34;;;;;;;26.27;20.10;;;;;;;10.71;93.24;97818.16;4956084;28;20215;-76
2022/04/23 05:31:01;;;;;;;25.45;18.70;;;;;;;10.76;92.88;97824.00;4955975;28;20216;-76
2022/04/23 05:33:28;;;;;;;23.80;18.75;;;;;;;10.84;93.08;97817.94;4955428;28;20678;-75
2022/04/23 05:35:54;;;;;;;21.67;18.25;;;;;;;10.87;92.58;97823.03;4956203;28;20292;-76
2022/04/23 05:38:23;;;;;;;22.50;18.52;;;;;;;10.89;92.83;97821.06;4956664;28;20550;-74
2022/04/23 05:40:50;;;;;;;26.23;20.05;;;;;;;11.06;91.64;97833.06;4956005;28;20205;-74
2022/04/23 05:43:17;;;;;;;25.02;19.83;;;;;;;11.22;90.66;97840.66;4954968;28;20619;-75
2022/04/23 05:45:44;;;;;;;21.83;19.25;;;;;;;11.27;90.28;97838.38;4956052;28;20207;-75
2022/04/23 05:48:11;;;;;;;23.25;19.13;;;;;;;11.26;90.20;97836.66;4955574;28;20287;-75
2022/04/23 05:50:38;;;;;;;23.33;19.65;;;;;;;11.35;90.20;97841.25;4955689;28;20230;-74
2022/04/23 05:53:05;;;;;;;23.60;18.58;;;;;;;11.39;89.91;97831.03;4955571;28;20193;-75
2022/04/23 05:55:33;;;;;;;23.77;18.15;;;;;;;11.46;89.35;97838.47;4955776;28;20215;-75
2022/04/23 05:57:59;;;;;;;23.05;18.67;;;;;;;11.50;89.34;97843.56;4938338;28;20202;-76
2022/04/23 06:00:26;;;;;;;26.58;20.00;;;;;;;11.32;90.75;97852.28;4935703;29;20197;-76
2022/04/23 06:02:52;;;;;;;23.27;18.30;;;;;;;11.43;90.99;97838.72;4943181;29;20201;-75
2022/04/23 06:05:19;;;;;;;23.45;17.95;;;;;;;11.61;89.58;97854.22;4955022;28;20215;-75
2022/04/23 06:07:46;;;;;;;23.58;17.83;;;;;;;11.83;87.63;97845.91;4955203;28;20724;-74
2022/04/23 06:10:13;;;;;;;21.73;18.20;;;;;;;11.74;88.37;97849.44;4955293;28;20495;-75
2022/04/23 06:12:41;;;;;;;22.92;17.70;;;;;;;11.81;88.32;97855.13;4955220;28;20205;-76
2022/04/23 06:15:08;;;;;;;22.70;18.23;;;;;;;11.89;87.62;97856.19;4955864;28;20195;-76
2022/04/23 06:17:35;;;;;;;20.55;16.95;;;;;;;11.73;89.26;97845.03;4956140;28;20224;-75
2022/04/23 06:20:02;;;;;;;23.13;18.52;;;;;;;11.88;89.58;97854.44;4957034;28;20211;-76
2022/04/23 06:22:28;;;;;;;21.67;16.85;;;;;;;11.91;89.02;97860.56;4957464;28;20221;-74
2022/04/23 06:24:55;;;;;;;21.10;17.42;;;;;;;12.14;90.22;97863.84;4956928;28;20197;-76
2022/04/23 06:27:22;;;;;;;19.75;16.50;;;;;;;12.19;88.63;97862.44;4956617;28;20201;-76
2022/04/23 06:29:50;;;;;;;21.83;17.67;;;;;;;12.35;87.40;97855.63;4956731;28;20192;-75
2022/04/23 06:32:17;;;;;;;22.02;18.25;;;;;;;12.43;85.19;97859.28;4956311;28;20304;-76
2022/04/23 06:34:43;;;;;;;23.05;18.38;;;;;;;12.67;83.83;97863.41;4957623;28;20647;-75
2022/04/23 06:37:11;;;;;;;19.60;16.80;;;;;;;12.55;83.47;97862.72;4954275;28;20192;-79
2022/04/23 06:39:38;;;;;;;20.48;17.98;;;;;;;12.29;85.26;97865.13;4937876;29;20277;-74
2022/04/23 06:42:05;;;;;;;24.70;18.58;;;;;;;12.19;86.88;97862.44;4937561;29;20351;-75
2022/04/23 06:44:32;;;;;;;20.15;15.98;;;;;;;12.23;87.04;97868.38;4950588;29;20189;-75
2022/04/23 06:47:00;;;;;;;22.23;18.67;;;;;;;12.06;88.50;97870.78;4955267;28;20651;-76
2022/04/23 06:49:27;;;;;;;18.73;16.73;;;;;;;12.38;87.39;97876.91;4954929;28;20189;-76
2022/04/23 06:51:54;;;;;;;20.63;16.80;;;;;;;12.82;83.39;97875.47;4955015;28;20275;-74
2022/04/23 06:54:21;;;;;;;24.00;17.75;;;;;;;12.95;82.51;97872.41;4955568;28;20185;-76
2022/04/23 06:56:47;;;;;;;21.98;17.67;;;;;;;12.79;82.80;97859.53;4956409;28;20189;-75
2022/04/23 06:59:14;;;;;;;19.17;16.25;;;;;;;13.10;84.24;97872.81;4955101;28;20197;-76
2022/04/23 07:01:41;;;;;;;19.55;17.40;;;;;;;13.46;79.68;97884.66;4957024;28;20196;-76
2022/04/23 07:04:09;;;;;;;19.60;16.60;;;;;;;13.70;78.10;97875.13;4955923;28;20194;-76
2022/04/23 07:06:36;;;;;;;20.00;17.83;;;;;;;13.00;81.61;97866.56;4954009;28;20193;-75
2022/04/23 07:09:04;;;;;;;18.92;15.75;;;;;;;13.25;82.57;97878.56;4956375;28;20195;-76
2022/04/23 07:11:30;;;;;;;23.92;16.90;;;;;;;13.23;80.21;97873.34;4956565;28;20743;-75
2022/04/23 07:13:57;;;;;;;22.17;18.25;;;;;;;13.15;81.01;97871.38;4955097;28;20203;-76
2022/04/23 07:16:23;;;;;;;19.30;17.17;;;;;;;12.87;83.60;97872.31;4954960;28;20719;-76
2022/04/23 07:18:52;;;;;;;20.98;17.42;;;;;;;12.83;83.80;97868.19;4955617;28;20272;-76
2022/04/23 07:21:20;;;;;;;20.05;16.45;;;;;;;13.42;81.72;97872.44;4954202;28;20197;-75
2022/04/23 07:24:05;;;;;;;18.40;16.45;;;;;;;13.69;78.35;97873.44;4936316;29;20196;-75
2022/04/23 07:26:34;;;;;;;18.90;15.38;;;;;;;13.67;79.95;97879.00;4936570;29;20200;-77
2022/04/23 07:29:02;;;;;;;18.52;16.15;;;;;;;13.41;79.98;97868.03;4942954;29;20237;-75
2022/04/23 07:31:29;;;;;;;20.33;17.77;;;;;;;13.50;80.10;97883.38;4955216;28;20217;-77
2022/04/23 07:39:25;;;;;;;19.95;16.98;;;;;;;14.19;76.40;97875.69;4955107;29;20193;-76
2022/04/23 07:41:54;;;;;;;17.35;15.55;;;;;;;14.51;75.08;97887.81;4955021;28;20199;-75
2022/04/23 07:44:21;;;;;;;19.38;15.05;;;;;;;14.20;75.55;97880.09;4955314;28;20196;-76
2022/04/23 07:46:47;;;;;;;19.15;15.57;;;;;;;13.63;79.05;97882.16;4955109;28;20214;-75
2022/04/23 07:49:14;;;;;;;18.83;15.88;;;;;;;13.24;82.47;97874.19;4955573;28;20194;-76
2022/04/23 07:51:42;;;;;;;18.40;14.88;;;;;;;13.62;80.93;97880.47;4954817;28;20210;-76
2022/04/23 07:54:09;;;;;;;19.52;14.85;;;;;;;13.39;82.58;97871.91;4954993;28;20297;-75
2022/04/23 07:56:35;;;;;;;18.75;16.33;;;;;;;13.36;82.64;97878.44;4955415;28;20204;-76
2022/04/23 07:59:03;;;;;;;17.38;15.55;;;;;;;13.27;84.18;97874.75;4954849;28;20209;-75
2022/04/23 08:01:30;;;;;;;17.05;15.27;;;;;;;13.78;80.90;97880.66;4955127;28;20278;-75
2022/04/23 08:03:57;;;;;;;17.10;15.30;;;;;;;13.95;79.74;97887.09;4955128;28;20196;-77
2022/04/23 08:06:23;;;;;;;16.73;14.95;;;;;;;14.21;77.39;97883.66;4954263;28;20196;-76
2022/04/23 08:08:51;;;;;;;16.80;14.88;;;;;;;14.66;75.70;97894.41;4954807;28;20207;-76
2022/04/23 08:11:19;;;;;;;16.02;14.30;;;;;;;14.67;75.02;97887.97;4953765;29;20547;-76
2022/04/23 08:13:46;;;;;;;17.27;13.77;;;;;;;15.04;73.90;97889.63;4954681;28;20207;-75
2022/04/23 08:16:12;;;;;;;19.08;13.13;;;;;;;15.13;72.76;97885.97;4954724;28;20240;-75
2022/04/23 08:18:39;;;;;;;15.23;13.52;;;;;;;15.35;72.26;97886.41;4955172;28;20191;-76
2022/04/23 08:21:05;;;;;;;15.10;13.48;;;;;;;15.38;71.38;97883.41;4954141;28;20206;-77
2022/04/23 08:23:33;;;;;;;14.60;12.40;;;;;;;15.26;71.76;97887.38;4955053;28;20195;-76
2022/04/23 08:26:01;;;;;;;16.85;14.00;;;;;;;15.68;70.24;97883.88;4955032;28;20195;-76
2022/04/23 08:31:13;;;;;;;13.77;12.38;;;;;;;15.73;69.54;97882.38;4955086;29;20336;-76
2022/04/23 08:36:23;;;;;;;15.20;13.65;;;;;;;15.71;69.30;97895.25;4955082;29;20240;-77
2022/04/23 08:38:51;;;;;;;17.77;12.65;;;;;;;15.94;68.24;97886.53;4955222;28;20207;-76
2022/04/23 08:41:19;;;;;;;16.05;13.10;;;;;;;16.17;67.76;97890.34;4955693;28;20192;-77
2022/04/23 08:43:47;;;;;;;12.23;10.88;;;;;;;16.39;67.46;97891.56;4944084;28;20202;-77
2022/04/23 08:46:18;;;;;;;12.20;10.95;;;;;;;16.60;66.26;97895.66;4935594;29;20213;-77
2022/04/23 08:48:50;;;;;;;12.32;10.60;;;;;;;16.60;65.48;97898.38;4944161;29;20636;-75
2022/04/23 08:51:20;;;;;;;12.93;11.40;;;;;;;16.17;67.59;97886.78;4954143;28;20209;-76
2022/04/23 08:53:48;;;;;;;11.18;10.07;;;;;;;16.79;65.07;97895.34;4954640;28;20189;-75
2022/04/23 08:56:15;;;;;;;12.15;10.68;;;;;;;17.25;62.78;97890.22;4952973;29;20211;-74
2022/04/23 08:58:43;;;;;;;10.63;9.52;;;;;;;17.70;60.85;97891.44;4955107;28;20195;-77
2022/04/23 09:01:09;;;;;;;11.65;10.32;;;;;;;17.74;59.58;97888.34;4953727;28;20194;-76
2022/04/23 09:03:36;;;;;;;10.63;9.52;;;;;;;17.21;60.57;97894.28;4954393;29;20238;-75
2022/04/23 09:06:03;;;;;;;11.32;9.20;;;;;;;16.70;65.07;97893.63;4954865;28;20388;-77
2022/04/23 09:08:30;;;;;;;10.65;9.55;;;;;;;17.42;60.80;97899.16;4955153;28;20617;-76
2022/04/23 09:10:57;;;;;;;10.15;7.90;;;;;;;17.89;58.88;97889.34;4954332;28;20213;-77
2022/04/23 09:13:28;;;;;;;13.07;9.13;;;;;;;18.18;57.30;97891.41;4954940;28;20198;-77
2022/04/23 09:24:19;;;;;;;11.63;9.25;;;;;;;18.12;56.86;97894.84;4957253;29;20260;-77
2022/04/23 09:27:03;;;;;;;9.15;7.45;;;;;;;18.22;56.40;97894.63;4957000;28;20694;-77
2022/04/23 09:29:30;;;;;;;9.75;8.73;;;;;;;18.18;55.57;97890.53;4942230;29;20201;-77
2022/04/23 09:32:10;;;;;;;10.88;8.50;;;;;;;18.57;54.76;97889.63;4957980;28;20274;-75
2022/04/23 09:34:38;;;;;;;9.05;8.25;;;;;;;18.72;53.62;97893.25;4956486;28;20274;-75
2022/04/23 09:37:05;;;;;;;9.70;8.43;;;;;;;18.81;53.46;97897.63;4948939;28;20210;-76
2022/04/23 09:39:34;;;;;;;10.35;7.95;;;;;;;18.92;52.09;97891.72;4938917;29;20196;-76
2022/04/23 09:42:14;;;;;;;9.43;7.85;;;;;;;18.74;52.70;97892.03;4953724;29;20307;-76
2022/04/23 09:44:42;;;;;;;8.48;7.68;;;;;;;18.51;53.79;97892.03;4965562;28;20637;-77
2022/04/23 09:47:10;;;;;;;8.35;7.60;;;;;;;18.70;53.41;97895.28;4948701;29;20600;-76
2022/04/23 09:49:38;;;;;;;10.98;8.45;;;;;;;18.56;53.49;97896.94;4953741;28;20200;-76
2022/04/23 09:52:06;;;;;;;9.00;8.10;;;;;;;18.63;52.99;97895.19;4963789;28;20596;-76
2022/04/23 09:54:35;;;;;;;8.48;7.68;;;;;;;18.65;52.87;97893.13;4975299;28;20203;-75
2022/04/23 09:57:02;;;;;;;8.15;7.00;;;;;;;18.83;52.26;97887.38;4975261;28;20273;-73
2022/04/23 09:59:29;;;;;;;9.43;6.40;;;;;;;18.65;53.01;97895.00;4963114;28;20619;-75
2022/04/23 10:01:57;;;;;;;8.57;7.07;;;;;;;18.63;53.74;97891.59;4953005;29;20279;-77
2022/04/23 10:04:40;;;;;;;8.43;7.30;;;;;;;18.80;52.60;97898.66;4955955;28;20207;-76
2022/04/23 10:07:10;;;;;;;7.57;6.85;;;;;;;19.12;51.04;97886.63;4896563;29;20638;-76
2022/04/23 10:09:42;;;;;;;8.93;6.00;;;;;;;19.28;50.36;97885.59;4896579;29;20210;-75
2022/04/23 10:12:13;;;;;;;9.13;7.40;;;;;;;19.32;51.36;97892.38;4896928;29;20356;-75
2022/04/23 10:14:45;;;;;;;6.80;6.20;;;;;;;19.19;50.38;97889.44;4896895;29;20427;-76
2022/04/23 10:17:16;;;;;;;6.85;6.15;;;;;;;19.07;50.72;97880.88;4895651;29;20270;-77
2022/04/23 10:19:45;;;;;;;6.43;5.83;;;;;;;19.41;48.90;97886.84;4896657;29;20194;-76
2022/04/23 10:22:19;;;;;;;8.18;7.38;;;;;;;19.31;48.76;97882.53;4898191;29;20451;-77
2022/04/23 10:24:56;;;;;;;7.15;6.45;;;;;;;19.45;48.40;97880.00;4900108;29;20241;-77
2022/04/23 10:27:25;;;;;;;6.97;5.73;;;;;;;19.38;48.98;97886.19;4899742;29;20213;-76
2022/04/23 10:29:55;;;;;;;8.93;7.17;;;;;;;18.96;50.30;97881.31;4899881;29;20438;-77
2022/04/23 10:32:22;;;;;;;8.77;6.23;;;;;;;19.37;48.43;97887.22;4901842;29;20494;-76
2022/04/23 10:34:50;;;;;;;7.20;6.43;;;;;;;19.58;48.11;97883.75;4900056;29;20431;-76
2022/04/23 10:37:18;;;;;;;7.67;6.87;;;;;;;19.38;48.44;97885.34;4901938;29;20545;-78
2022/04/23 10:39:46;;;;;;;7.50;5.83;;;;;;;19.57;48.31;97886.66;4902398;29;20454;-76
2022/04/23 10:42:13;;;;;;;7.93;6.30;;;;;;;19.83;48.34;97878.03;4902307;29;20902;-77
2022/04/23 10:44:42;;;;;;;7.00;6.40;;;;;;;20.10;46.62;97883.81;4938334;29;20205;-76
2022/04/23 10:47:15;;;;;;;8.20;5.93;;;;;;;20.29;46.55;97876.91;4961828;28;20444;-77
2022/04/23 10:49:43;;;;;;;7.10;6.40;;;;;;;19.44;48.83;97879.13;4966217;28;20460;-77
2022/04/23 10:52:12;;;;;;;7.40;6.70;;;;;;;19.55;49.03;97873.19;4968533;28;20205;-76
2022/04/23 10:54:55;;;;;;;6.73;6.13;;;;;;;19.79;48.02;97872.09;4967491;28;20451;-76
2022/04/23 10:57:23;;;;;;;7.13;6.53;;;;;;;19.54;48.88;97867.94;4966599;28;20879;-77
2022/04/23 10:59:50;;;;;;;7.55;6.85;;;;;;;19.95;48.65;97862.00;4964363;29;20444;-76
2022/04/23 11:02:31;;;;;;;7.97;7.10;;;;;;;19.86;48.00;97874.91;4961687;28;20208;-76
2022/04/23 11:13:36;;;;;;;8.30;5.90;;;;;;;20.31;46.21;97867.47;4940423;29;20476;-77
2022/04/23 11:16:10;;;;;;;6.03;5.43;;;;;;;20.27;46.20;97870.78;4943884;29;20835;-76
2022/04/23 11:18:37;;;;;;;6.97;5.60;;;;;;;19.95;47.05;97862.00;4947168;29;20528;-77
2022/04/23 11:21:11;;;;;;;9.73;6.37;;;;;;;20.94;45.40;97864.09;4962998;29;20439;-77
2022/04/23 11:23:42;;;;;;;6.70;6.10;;;;;;;20.55;45.42;97855.28;4963348;28;20930;-78
2022/04/23 11:26:11;;;;;;;6.67;5.97;;;;;;;20.50;45.74;97860.50;4943631;29;20441;-77
2022/04/23 11:28:38;;;;;;;9.20;6.80;;;;;;;20.66;45.21;97864.06;4946568;29;20430;-77
2022/04/23 11:31:13;;;;;;;6.00;5.40;;;;;;;20.76;44.65;97859.13;4965967;29;20481;-78
2022/04/23 11:33:50;;;;;;;7.40;6.60;;;;;;;20.60;44.91;97861.06;4967547;28;20483;-77
2022/04/23 11:36:17;;;;;;;6.23;5.70;;;;;;;20.71;45.31;97856.09;4967387;28;20428;-77
2022/04/23 11:38:45;;;;;;;6.80;5.60;;;;;;;20.50;45.83;97865.97;4963915;28;20884;-79
2022/04/23 11:41:12;;;;;;;8.90;6.97;;;;;;;19.95;46.55;97853.81;4964902;28;20527;-76
2022/04/23 11:43:39;;;;;;;7.13;6.00;;;;;;;19.76;47.43;97853.38;4963277;28;20439;-76
2022/04/23 11:46:08;;;;;;;7.60;6.90;;;;;;;19.69;47.63;97855.16;4967374;28;20452;-77
2022/04/23 11:48:42;;;;;;;7.50;6.70;;;;;;;19.79;47.90;97857.59;4966957;29;20460;-76
2022/04/23 11:51:12;;;;;;;7.17;6.40;;;;;;;20.42;46.95;97857.91;4966027;29;20511;-76
2022/04/23 11:53:59;;;;;;;8.00;6.63;;;;;;;20.68;45.06;97843.69;4968840;28;20495;-77